Ortega (1243) Station Data

Red Flag Warning: No
Fire Weather Zone: 242
SDGE Region: Orange County
Lat/Lon: 33.57/-117.513

Observations

Time Wind Speed/Gust Temp(F) RH Fuel Moist Fuel Temp(F) Dewpt(F) Tmax(F) Tmin(F) Accum Precip 10-min Precip SL Press(mb)
5/24 8:20am 249 3 G 6 55° 86% - - 51° 60.7° 49.5° - - 1016.0
5/24 8:10am 247 2 G 5 56° 88% - - 52° 60.7° 49.5° - - 1016.0
5/24 8:00am 238 4 G 9 55° 90% - - 52° 60.7° 49.5° - - 1016.0
5/24 7:50am 193 3 G 5 55° 91% - - 52° 60.7° 49.5° - - 1015.0
5/24 7:40am 239 1 G 3 54° 92% - - 52° 60.7° 49.5° - - 1015.0
5/24 7:30am 62 3 G 8 53° 91% - - 50° 60.7° 49.5° - - 1016.0
5/24 7:20am 64 7 G 9 52° 91% - - 49° 60.7° 49.5° - - 1016.0
5/24 7:10am 92 3 G 7 52° 91% - - 49° 60.7° 49.5° - - 1016.0
5/24 7:00am 226 2 G 5 52° 91% - - 49° 60.7° 49.5° - - 1016.0
5/24 6:50am 22 2 G 5 52° 91% - - 49° 60.7° 49.5° - - 1016.0
5/24 6:40am 22 2 G 3 51° 90% - - 48° 60.7° 49.5° - - 1016.0
5/24 6:30am 319 2 G 5 51° 89% - - 48° 60.7° 49.5° - - 1016.0
5/24 6:20am 177 2 G 8 51° 87% - - 47° 60.7° 49.5° - - 1015.0
5/24 6:10am 266 3 G 5 51° 84% - - 47° 60.7° 49.5° - - 1015.0
5/24 6:00am 50 5 G 10 50° 87% - - 46° 60.7° 49.5° - - 1015.0
5/24 5:50am 290 2 G 5 51° 83% - - 46° 60.7° 50.2° - - 1015.0
5/24 5:40am 1 1 G 2 50° 80% - - 45° 60.7° 50.2° - - 1015.0
5/24 5:30am 28 1 G 3 51° 80% - - 45° 60.7° 50.7° - - 1015.0
5/24 5:20am 53 2 G 5 51° 81% - - 45° 60.7° 50.8° - - 1015.0
5/24 5:10am 250 2 G 3 53° 74% - - 44° 60.7° 51.4° - - 1015.0
5/24 5:00am 59 3 G 5 56° 65% - - 45° 60.7° 52.1° - - 1014.0
5/24 4:50am 49 4 G 6 55° 69% - - 45° 60.7° 52.1° - - 1014.0
5/24 4:40am 64 3 G 5 53° 76% - - 45° 60.7° 52.1° - - 1015.0
5/24 4:30am 90 1 G 4 53° 79% - - 46° 60.7° 52.1° - - 1015.0
5/24 4:20am 131 0 G 0 53° 80% - - 47° 60.7° 52.3° - - 1015.0
5/24 4:10am 81 1 G 2 53° 79% - - 46° 60.7° 52.3° - - 1015.0
5/24 4:00am 78 0 G 2 52° 79% - - 46° 60.7° 52.3° - - 1016.0
5/24 3:50am 0 0 G 0 53° 76% - - 45° 60.7° 52.5° - - 1016.0
5/24 3:40am 255 0 G 2 54° 72% - - 45° 60.7° 53.2° - - 1015.0
5/24 3:30am 208 1 G 2 55° 72% - - 46° 60.7° 54.3° - - 1015.0
5/24 3:20am 66 1 G 2 55° 72% - - 46° 60.7° 54.3° - - 1015.0
5/24 3:10am 210 1 G 3 57° 66% - - 45° 60.7° 54.4° - - 1015.0
5/24 3:00am 232 1 G 3 60° 56% - - 45° 60.7° 54.4° - - 1015.0
5/24 2:50am 65 1 G 3 60° 57% - - 45° 60.4° 54.4° - - 1015.0
5/24 2:40am 71 3 G 4 58° 60% - - 44° 59.6° 54.4° - - 1015.0
5/24 2:30am 67 1 G 3 56° 69% - - 46° 59.6° 54.4° - - 1015.0
5/24 2:20am 358 0 G 2 55° 73% - - 47° 59.6° 54.4° - - 1015.0
5/24 2:10am 102 0 G 1 55° 73% - - 46° 59.6° 54.6° - - 1016.0
5/24 2:00am 102 0 G 1 55° 71% - - 46° 59.6° 54.8° - - 1016.0
5/24 1:50am 123 0 G 0 57° 70% - - 47° 59.6° 56.1° - - 1016.0
5/24 1:40am 238 0 G 1 58° 70% - - 49° 59.6° 56.9° - - 1016.0
5/24 1:30am 258 0 G 1 59° 70% - - 50° 59.6° 56.9° - - 1016.0
5/24 1:20am 68 1 G 2 59° 69% - - 49° 59.6° 56.9° - - 1015.0
5/24 1:10am 46 1 G 4 59° 69% - - 49° 59.4° 56.9° - - 1016.0
5/24 1:00am 50 3 G 5 59° 70% - - 49° 59.2° 56.9° - - 1016.0
5/24 12:50am 46 3 G 5 58° 71% - - 49° 58.7° 56.9° - - 1016.0
5/24 12:40am 55 4 G 5 57° 71% - - 48° 58.5° 56.9° - - 1016.0
5/24 12:30am 62 3 G 4 58° 72% - - 49° 58.5° 57.7° - - 1016.0
5/24 12:20am 31 1 G 4 58° 73% - - 50° 58.5° 57.9° - - 1017.0
5/24 12:10am 48 4 G 5 58° 73% - - 50° 58.5° 57.9° - - 1017.0
5/24 12:00am 59 2 G 5 58° 74% - - 50° 85° 54.4° - - 1017.0
5/23 11:50pm 217 0 G 1 58° 73% - - 50° 85° 54.4° - - 1016.0
5/23 11:40pm 244 0 G 2 59° 72% - - 50° 85° 54.4° - - 1016.0
5/23 11:30pm 40 2 G 5 59° 72% - - 50° 85° 54.4° - - 1016.0
5/23 11:20pm 56 5 G 6 58° 74% - - 50° 85° 54.4° - - 1016.0
5/23 11:10pm 74 1 G 3 58° 74% - - 50° 85° 54.4° - - 1017.0
5/23 11:00pm 338 0 G 1 59° 74% - - 50° 85° 54.4° - - 1017.0
5/23 10:50pm 333 1 G 2 59° 73% - - 51° 85° 54.4° - - 1017.0
5/23 10:40pm 53 3 G 4 59° 73% - - 51° 85° 54.4° - - 1017.0
5/23 10:30pm 62 1 G 3 59° 73% - - 51° 85° 54.4° - - 1017.0
5/23 10:20pm 221 0 G 2 60° 72% - - 51° 85° 54.4° - - 1017.0
5/23 10:10pm 240 1 G 2 61° 71% - - 51° 85° 54.4° - - 1016.0
5/23 10:00pm 68 2 G 3 61° 70% - - 51° 85° 54.4° - - 1016.0
5/23 9:50pm 55 2 G 3 62° 71% - - 52° 85° 54.4° - - 1016.0
5/23 9:40pm 88 0 G 2 62° 70% - - 52° 85° 54.4° - - 1016.0
5/23 9:30pm 231 0 G 1 62° 69% - - 52° 85° 54.4° - - 1016.0
5/23 9:20pm 263 0 G 2 63° 67% - - 52° 85° 54.4° - - 1016.0
5/23 9:10pm 118 0 G 1 64° 66% - - 52° 85° 54.4° - - 1016.0
5/23 9:00pm 49 0 G 2 65° 66% - - 53° 85° 54.4° - - 1016.0
5/23 8:50pm 263 0 G 1 65° 65% - - 53° 85° 54.4° - - 1016.0
5/23 8:40pm 55 1 G 3 66° 64% - - 53° 85° 54.4° - - 1016.0
5/23 8:30pm 32 1 G 3 66° 64% - - 53° 85° 54.4° - - 1016.0
5/23 8:20pm 68 2 G 3 66° 65% - - 54° 85° 54.4° - - 1015.0
5/23 8:10pm 158 1 G 2 66° 63% - - 54° 85° 54.4° - - 1015.0
5/23 8:00pm 214 0 G 1 67° 62% - - 54° 85° 54.4° - - 1015.0
5/23 7:50pm 120 1 G 2 67° 61% - - 54° 85° 54.4° - - 1015.0
5/23 7:40pm 177 1 G 2 69° 58% - - 53° 85° 54.4° - - 1015.0
5/23 7:30pm 263 1 G 2 69° 57% - - 53° 85° 54.4° - - 1015.0
5/23 7:20pm 263 2 G 3 70° 55% - - 54° 85° 54.4° - - 1015.0
5/23 7:10pm 269 2 G 5 71° 56% - - 54° 85° 54.4° - - 1015.0
5/23 7:00pm 267 4 G 8 71° 55% - - 54° 85° 54.4° - - 1015.0
5/23 6:50pm 253 4 G 9 73° 51% - - 54° 85° 54.4° - - 1015.0
5/23 6:40pm 248 6 G 11 75° 48% - - 54° 85° 54.4° - - 1015.0
5/23 6:30pm 254 4 G 7 77° 44% - - 53° 85° 54.4° - - 1014.0
5/23 6:20pm 259 4 G 5 77° 44% - - 53° 85° 54.4° - - 1014.0
5/23 6:10pm 251 4 G 7 77° 45% - - 53° 85° 54.4° - - 1015.0
5/23 6:00pm 251 5 G 7 77° 45% - - 54° 85° 54.4° - - 1015.0
5/23 5:50pm 229 4 G 8 78° 43% - - 54° 85° 54.4° - - 1015.0
5/23 5:40pm 236 5 G 10 78° 43% - - 53° 85° 54.4° - - 1014.0
5/23 5:30pm 234 5 G 9 79° 41% - - 53° 85° 54.4° - - 1014.0
5/23 5:20pm 234 7 G 12 79° 41% - - 53° 85° 54.4° - - 1014.0
5/23 5:10pm 230 8 G 12 80° 36% - - 51° 85° 54.4° - - 1014.0
5/23 5:00pm 231 9 G 13 82° 34% - - 50° 85° 54.4° - - 1014.0
5/23 4:50pm 225 7 G 14 83° 31% - - 49° 85° 54.4° - - 1014.0
5/23 4:40pm 227 7 G 11 84° 31% - - 50° 85° 54.4° - - 1014.0
5/23 4:30pm 221 6 G 10 84° 32% - - 51° 85° 54.4° - - 1014.0
5/23 4:20pm 217 5 G 9 84° 33% - - 51° 85° 54.4° - - 1014.0
5/23 4:10pm 229 6 G 13 83° 34% - - 52° 85° 54.4° - - 1015.0
5/23 4:00pm 223 6 G 11 84° 34% - - 53° 85° 54.4° - - 1015.0
5/23 3:50pm 222 5 G 11 84° 34% - - 53° 85° 54.4° - - 1015.0
5/23 3:40pm 211 5 G 10 84° 36% - - 54° 84.7° 54.4° - - 1015.0
5/23 3:30pm 221 3 G 9 83° 38% - - 55° 83.6° 54.4° - - 1015.0
5/23 3:20pm 227 4 G 9 83° 39% - - 55° 82.9° 54.4° - - 1015.0
5/23 3:10pm 206 4 G 9 82° 41% - - 56° 82.7° 54.4° - - 1015.0
5/23 3:00pm 206 4 G 6 81° 42% - - 56° 82.7° 54.4° - - 1015.0
5/23 2:50pm 208 4 G 8 81° 42% - - 56° 82.7° 54.4° - - 1016.0
5/23 2:40pm 204 5 G 10 80° 44% - - 56° 82.7° 54.4° - - 1016.0
5/23 2:30pm 213 4 G 9 79° 46% - - 56° 82.7° 54.4° - - 1016.0
5/23 2:20pm 226 5 G 10 78° 48% - - 56° 82.7° 54.4° - - 1016.0
5/23 2:10pm 218 5 G 9 77° 48% - - 56° 82.7° 54.4° - - 1016.0
5/23 2:00pm 230 6 G 11 76° 50% - - 56° 82.7° 54.4° - - 1016.0
5/23 1:50pm 233 6 G 10 77° 50% - - 56° 82.7° 54.4° - - 1016.0
5/23 1:40pm 241 6 G 9 76° 50% - - 56° 82.7° 54.4° - - 1016.0
5/23 1:30pm 231 5 G 10 77° 49% - - 56° 82.7° 54.4° - - 1016.0
5/23 1:20pm 224 5 G 9 77° 49% - - 56° 82.7° 54.4° - - 1016.0
5/23 1:10pm 209 5 G 10 77° 48% - - 56° 82.7° 54.4° - - 1016.0
5/23 1:00pm 228 4 G 7 76° 51% - - 56° 82.7° 54.4° - - 1016.0
5/23 12:50pm 232 4 G 8 75° 53% - - 56° 82.7° 54.4° - - 1016.0
5/23 12:40pm 230 5 G 8 73° 55% - - 56° 82.7° 54.4° - - 1017.0
5/23 12:30pm 228 6 G 10 72° 57% - - 56° 82.7° 54.4° - - 1017.0
5/23 12:20pm 239 7 G 12 72° 58% - - 56° 82.7° 54.4° - - 1017.0
5/23 12:10pm 237 7 G 12 73° 56% - - 56° 82.7° 54.4° - - 1017.0
5/23 12:00pm 242 6 G 11 73° 56% - - 56° 82.7° 54.4° - - 1017.0
5/23 11:50am 239 7 G 12 73° 56% - - 56° 82.7° 54.4° - - 1017.0
5/23 11:40am 236 7 G 11 74° 54% - - 56° 82.7° 54.4° - - 1017.0
5/23 11:30am 233 7 G 12 74° 53% - - 56° 82.7° 54.4° - - 1017.0
5/23 11:20am 237 8 G 13 76° 50% - - 56° 82.7° 54.4° - - 1016.0
5/23 11:10am 231 7 G 14 77° 47% - - 55° 82.7° 54.4° - - 1016.0
5/23 11:00am 239 7 G 11 79° 41% - - 53° 82.7° 54.4° - - 1016.0
5/23 10:50am 238 6 G 11 79° 39% - - 52° 82.7° 54.4° - - 1016.0
5/23 10:40am 250 6 G 11 78° 40% - - 52° 82.7° 54.4° - - 1016.0
5/23 10:30am 251 6 G 11 78° 42% - - 53° 82.7° 54.4° - - 1016.0
5/23 10:20am 237 6 G 11 79° 39% - - 52° 82.7° 54.4° - - 1016.0
5/23 10:10am 213 3 G 6 82° 37% - - 54° 82.7° 54.4° - - 1015.0
5/23 10:00am 188 3 G 5 82° 36% - - 53° 82.7° 54.4° - - 1015.0
5/23 9:50am 184 3 G 4 81° 36% - - 51° 81.6° 54.4° - - 1016.0
5/23 9:40am 209 2 G 4 80° 36% - - 51° 80.9° 54.4° - - 1016.0
5/23 9:30am 209 1 G 3 78° 42% - - 53° 79.6° 54.4° - - 1016.0
5/23 9:20am 215 0 G 2 76° 47% - - 54° 76.9° 54.4° - - 1016.0
5/23 9:10am 211 0 G 1 73° 54% - - 55° 74.7° 54.4° - - 1016.0
5/23 9:00am 171 1 G 2 70° 59% - - 55° 70.8° 54.4° - - 1017.0
5/23 8:50am 210 1 G 2 67° 65% - - 55° 68.4° 54.4° - - 1017.0
5/23 8:40am 158 1 G 2 65° 70% - - 55° 65.8° 54.4° - - 1017.0
5/23 8:30am 147 1 G 3 63° 74% - - 55° 63.9° 54.4° - - 1017.0
5/23 8:20am 137 2 G 4 62° 74% - - 54° 63.7° 54.4° - - 1017.0
5/23 8:10am 185 3 G 4 62° 73% - - 53° 63.7° 54.4° - - 1017.0
5/23 8:00am 196 2 G 3 62° 72% - - 52° 63.7° 54.4° - - 1017.0
5/23 7:50am 269 1 G 2 61° 74% - - 53° 63.7° 54.4° - - 1017.0
5/23 7:40am 98 1 G 2 59° 77% - - 52° 63.7° 54.4° - - 1017.0
5/23 7:30am 112 0 G 2 57° 81% - - 52° 63.7° 54.4° - - 1018.0
5/23 7:20am 158 1 G 2 56° 81% - - 51° 63.7° 54.4° - - 1018.0
5/23 7:10am 166 1 G 2 56° 80% - - 50° 63.7° 54.4° - - 1018.0
5/23 7:00am 98 1 G 3 56° 77% - - 49° 63.7° 54.4° - - 1018.0
5/23 6:50am 181 1 G 2 57° 75% - - 49° 63.7° 54.4° - - 1017.0
5/23 6:40am 211 1 G 3 58° 73% - - 49° 63.7° 54.4° - - 1017.0
5/23 6:30am 154 0 G 1 57° 75% - - 49° 63.7° 54.4° - - 1017.0
5/23 6:20am 171 0 G 1 56° 75% - - 49° 63.7° 54.4° - - 1017.0
5/23 6:10am 67 1 G 2 56° 77% - - 49° 63.7° 54.4° - - 1017.0
5/23 6:00am 79 1 G 3 56° 76% - - 48° 63.7° 54.4° - - 1018.0